Terminal Aerodrome Forecast
Issued by NWS

Home | Current Version | Previous Version | Text Only | Print | Product List | Glossary On
Versions: 1 2 3 4 5 6 7 8 9 10 11 12 13 14 15 16 17 18 19
000
FTAK31 PANC 151740
TAFADL
TAF
PADL 151740Z 1518/1618 08016G24KT 3SM -SHSN BLSN SCT008 BKN015
      OVC040
     FM152200 13012G20KT 4SM -SHRA BR SCT003 SCT007 OVC015
     FM160100 17008G16KT P6SM VCSH FEW003 BKN012 BKN040
     FM160600 13006KT 3SM BR SCT015 BKN025 BKN040=

USA.gov is the U.S. government's official web portal to all federal, state and local government web resources and services.